Time;durP1;ratioP1;P1;durP2;ratioP2;P2;SDS_P1;SDS_P2;PMS_P1;PMS_P2;Temp;Humidity;BMP_temperature;BMP_pressure;BME280_temperature;BME280_humidity;BME280_pressure;Samples;Min_cycle;Max_cycle;Signal;HPM_P1;HPM_P2
2022/08/31 00:04:52;;;;;;;1.95;1.33;;;15.70;99.90;;;;;;5028963;27;89100;-44
2022/08/31 00:07:17;;;;;;;3.30;1.67;;;15.70;99.90;;;;;;5042233;27;89003;-32
2022/08/31 00:09:43;;;;;;;1.20;1.00;;;15.60;99.90;;;;;;5041451;27;90068;-40
2022/08/31 00:12:09;;;;;;;2.30;1.08;;;15.60;99.90;;;;;;5041433;27;89647;-32
2022/08/31 00:14:34;;;;;;;1.00;0.88;;;15.70;99.90;;;;;;5040962;27;87900;-37
2022/08/31 00:17:00;;;;;;;1.90;0.90;;;15.70;99.90;;;;;;5041248;27;89638;-39
2022/08/31 00:19:25;;;;;;;1.50;0.88;;;15.70;99.90;;;;;;5041386;27;90484;-35
2022/08/31 00:21:51;;;;;;;1.35;0.98;;;15.70;99.90;;;;;;5041156;27;89481;-36
2022/08/31 00:24:17;;;;;;;1.27;0.88;;;15.70;99.90;;;;;;5041390;27;88423;-37
2022/08/31 00:26:42;;;;;;;2.25;1.38;;;15.70;99.90;;;;;;5040231;27;90101;-38
2022/08/31 00:29:09;;;;;;;0.85;0.80;;;15.70;99.90;;;;;;5041067;27;89185;-43
2022/08/31 00:31:34;;;;;;;2.55;0.90;;;15.80;99.90;;;;;;5057063;22;90179;-33
2022/08/31 00:34:00;;;;;;;3.00;0.88;;;15.70;99.90;;;;;;4942113;28;88909;-30
2022/08/31 00:36:26;;;;;;;2.25;0.82;;;15.70;99.90;;;;;;4941263;28;87653;-33
2022/08/31 00:38:53;;;;;;;1.00;0.90;;;15.70;99.90;;;;;;4940788;28;90344;-30
2022/08/31 00:41:23;;;;;;;1.52;1.23;;;15.60;99.90;;;;;;4940350;28;90275;-34
2022/08/31 00:43:51;;;;;;;3.42;1.10;;;15.70;99.90;;;;;;4941190;28;89173;-30
2022/08/31 00:46:23;;;;;;;0.90;0.90;;;15.70;99.90;;;;;;4941357;28;89292;-34
2022/08/31 00:48:52;;;;;;;1.02;0.90;;;15.70;99.90;;;;;;4940893;28;90194;-29
2022/08/31 00:51:18;;;;;;;1.27;0.85;;;15.70;99.90;;;;;;4940656;28;89941;-33
2022/08/31 00:53:44;;;;;;;1.08;0.82;;;15.60;99.90;;;;;;4941606;28;87831;-33
2022/08/31 00:56:10;;;;;;;5.32;1.30;;;15.60;99.90;;;;;;4941344;28;90060;-32
2022/08/31 00:58:36;;;;;;;0.50;0.50;;;15.70;99.90;;;;;;4941063;28;90454;-31
2022/08/31 01:01:03;;;;;;;1.65;0.95;;;15.60;99.90;;;;;;4941076;28;89548;-30
2022/08/31 01:03:29;;;;;;;1.85;1.15;;;15.60;99.90;;;;;;4940587;28;88284;-31
2022/08/31 01:05:55;;;;;;;1.05;0.73;;;15.60;99.90;;;;;;4940969;28;88515;-35
2022/08/31 01:08:20;;;;;;;2.47;1.10;;;15.50;99.90;;;;;;4940701;28;90225;-33
2022/08/31 01:10:46;;;;;;;0.70;0.70;;;15.50;99.90;;;;;;4941181;28;89882;-33
2022/08/31 01:13:14;;;;;;;0.90;0.85;;;15.40;99.90;;;;;;4923302;28;90575;-33
2022/08/31 01:15:51;;;;;;;1.80;0.90;;;15.40;99.90;;;;;;4941348;28;89837;-30
2022/08/31 01:18:18;;;;;;;2.20;1.45;;;15.30;99.90;;;;;;4940507;28;90556;-32
2022/08/31 01:20:59;;;;;;;1.33;0.93;;;15.20;99.90;;;;;;4940953;28;89934;-32
2022/08/31 01:23:41;;;;;;;0.90;0.90;;;15.20;99.90;;;;;;4928199;28;88755;-31
2022/08/31 01:26:09;;;;;;;1.33;1.08;;;15.10;99.90;;;;;;4941048;28;88102;-30
2022/08/31 01:28:35;;;;;;;3.00;0.97;;;15.10;99.90;;;;;;4940230;28;91308;-31
2022/08/31 01:31:06;;;;;;;0.93;0.90;;;15.00;99.90;;;;;;4940262;28;89737;-32
2022/08/31 01:33:35;;;;;;;1.23;1.02;;;15.00;99.90;;;;;;4940189;28;88366;-30
2022/08/31 01:36:01;;;;;;;2.22;0.95;;;15.00;99.90;;;;;;4941257;28;89800;-34
2022/08/31 01:38:27;;;;;;;0.70;0.63;;;15.00;99.90;;;;;;4940383;28;90642;-31
2022/08/31 01:40:56;;;;;;;0.95;0.95;;;15.00;99.90;;;;;;4939894;28;90077;-31
2022/08/31 01:43:22;;;;;;;1.08;0.85;;;14.90;99.90;;;;;;4940633;28;89178;-32
2022/08/31 01:45:48;;;;;;;1.98;0.80;;;14.90;99.90;;;;;;4941215;28;87822;-31
2022/08/31 01:48:14;;;;;;;0.75;0.57;;;14.80;99.90;;;;;;4940403;28;89991;-34
2022/08/31 01:50:40;;;;;;;4.00;1.20;;;14.80;99.90;;;;;;4939800;28;89543;-31
2022/08/31 01:53:06;;;;;;;1.05;0.93;;;14.70;99.90;;;;;;4940789;28;89165;-31
2022/08/31 01:55:31;;;;;;;0.80;0.63;;;14.70;99.90;;;;;;4940444;28;88723;-31
2022/08/31 01:57:59;;;;;;;1.70;0.98;;;14.60;99.90;;;;;;4940831;28;90167;-33
2022/08/31 02:00:27;;;;;;;0.93;0.47;;;14.60;99.90;;;;;;4940306;28;89793;-29
2022/08/31 02:02:53;;;;;;;1.15;0.80;;;14.50;99.90;;;;;;4940269;28;88484;-31
2022/08/31 02:05:19;;;;;;;0.98;0.98;;;14.40;99.90;;;;;;4938155;28;89295;-32
2022/08/31 02:07:45;;;;;;;1.05;0.90;;;14.30;99.90;;;;;;4941467;28;90284;-31
2022/08/31 02:10:12;;;;;;;1.98;0.80;;;14.30;99.90;;;;;;4943847;28;90197;-30
2022/08/31 02:12:37;;;;;;;0.93;0.75;;;14.20;99.90;;;;;;4944225;28;89730;-31
2022/08/31 02:15:03;;;;;;;0.70;0.70;;;14.10;99.90;;;;;;4943854;28;88333;-30
2022/08/31 02:17:29;;;;;;;2.05;0.75;;;14.00;99.90;;;;;;4942610;28;90862;-30
2022/08/31 02:19:55;;;;;;;2.28;0.60;;;14.00;99.90;;;;;;4943173;28;90556;-29
2022/08/31 02:22:20;;;;;;;0.80;0.80;;;14.00;99.90;;;;;;4942993;28;87883;-30
2022/08/31 02:24:46;;;;;;;3.15;0.88;;;13.90;99.90;;;;;;4944036;28;88719;-32
2022/08/31 02:27:12;;;;;;;0.80;0.80;;;13.80;99.90;;;;;;4943159;28;90715;-36
2022/08/31 02:29:38;;;;;;;1.27;1.17;;;13.70;99.90;;;;;;4942896;28;89761;-32
2022/08/31 02:32:04;;;;;;;1.55;0.90;;;13.60;99.90;;;;;;4943166;28;87533;-29
2022/08/31 02:34:30;;;;;;;2.17;1.17;;;13.60;99.90;;;;;;4943107;28;88728;-32
2022/08/31 02:36:55;;;;;;;0.70;0.70;;;13.50;99.90;;;;;;4943636;28;90365;-34
2022/08/31 02:39:21;;;;;;;1.83;1.27;;;13.50;99.90;;;;;;4943396;28;89632;-30
2022/08/31 02:41:47;;;;;;;0.95;0.68;;;13.40;99.90;;;;;;4942344;28;89139;-33
2022/08/31 02:44:13;;;;;;;0.80;0.80;;;13.30;99.90;;;;;;4943292;28;87709;-34
2022/08/31 02:46:38;;;;;;;1.38;1.20;;;13.30;99.90;;;;;;4942691;28;90590;-33
2022/08/31 02:49:04;;;;;;;1.38;1.27;;;13.20;99.90;;;;;;4943894;28;89981;-31
2022/08/31 02:51:30;;;;;;;1.23;1.02;;;13.10;99.90;;;;;;4942966;28;88176;-33
2022/08/31 02:53:56;;;;;;;0.80;0.80;;;13.00;99.90;;;;;;4925774;28;89464;-33
2022/08/31 02:56:22;;;;;;;0.70;0.70;;;13.00;99.90;;;;;;4943496;28;88892;-33
2022/08/31 02:58:53;;;;;;;0.90;0.85;;;13.00;99.90;;;;;;4942286;28;89694;-33
2022/08/31 03:01:20;;;;;;;1.15;0.98;;;13.00;99.90;;;;;;4943085;28;88969;-31
2022/08/31 03:03:46;;;;;;;2.33;1.10;;;12.90;99.90;;;;;;4942818;28;89874;-32
2022/08/31 03:06:12;;;;;;;1.15;0.90;;;12.90;99.90;;;;;;4942606;28;90289;-32
2022/08/31 03:08:38;;;;;;;2.25;1.48;;;12.80;99.90;;;;;;4942202;28;88483;-32
2022/08/31 03:11:04;;;;;;;2.67;0.80;;;12.80;99.90;;;;;;4943409;28;88444;-31
2022/08/31 03:13:29;;;;;;;3.60;1.23;;;12.80;99.90;;;;;;4943507;28;88070;-30
2022/08/31 03:15:55;;;;;;;1.58;1.02;;;12.70;99.90;;;;;;4942252;28;90034;-29
2022/08/31 03:18:21;;;;;;;0.93;0.93;;;12.70;99.90;;;;;;4942640;28;90189;-28
2022/08/31 03:20:47;;;;;;;0.95;0.90;;;12.70;99.90;;;;;;4942349;28;90105;-32
2022/08/31 03:23:14;;;;;;;3.15;0.85;;;12.70;99.90;;;;;;4943117;28;88069;-34
2022/08/31 03:25:40;;;;;;;2.25;1.38;;;12.60;99.90;;;;;;4943000;28;90383;-29
2022/08/31 03:28:06;;;;;;;1.27;0.95;;;12.60;99.90;;;;;;4941813;28;89909;-33
2022/08/31 03:30:32;;;;;;;1.77;1.63;;;12.60;99.90;;;;;;4942799;28;88315;-30
2022/08/31 03:32:58;;;;;;;1.30;1.20;;;12.60;99.90;;;;;;4941859;28;89337;-31
2022/08/31 03:35:23;;;;;;;2.03;1.08;;;12.50;99.90;;;;;;4942115;28;89926;-34
2022/08/31 03:37:49;;;;;;;0.98;0.98;;;12.50;99.90;;;;;;4942498;28;90127;-30
2022/08/31 03:40:15;;;;;;;1.25;1.15;;;12.50;99.90;;;;;;4942253;28;88443;-29
2022/08/31 03:42:41;;;;;;;4.35;1.55;;;12.50;99.90;;;;;;4942515;28;88343;-31
2022/08/31 03:45:07;;;;;;;1.10;1.10;;;12.40;99.90;;;;;;4942682;28;90268;-32
2022/08/31 03:47:34;;;;;;;1.27;1.13;;;12.40;99.90;;;;;;4942080;28;89626;-30
2022/08/31 03:50:02;;;;;;;1.92;1.77;;;12.40;99.90;;;;;;4942671;28;89329;-28
2022/08/31 03:52:28;;;;;;;1.30;1.20;;;12.30;99.90;;;;;;4942294;28;87608;-33
2022/08/31 03:54:54;;;;;;;1.58;1.45;;;12.30;99.90;;;;;;4941646;28;90325;-33
2022/08/31 03:57:19;;;;;;;2.50;1.50;;;12.30;99.90;;;;;;4941655;28;90235;-29
2022/08/31 03:59:45;;;;;;;2.88;1.20;;;12.20;99.90;;;;;;4942307;28;88812;-31
2022/08/31 04:02:10;;;;;;;1.70;1.50;;;12.20;99.90;;;;;;4942355;28;87661;-32
2022/08/31 04:04:36;;;;;;;1.50;1.40;;;12.20;99.90;;;;;;4942000;28;90206;-28
2022/08/31 04:07:02;;;;;;;4.22;1.83;;;12.10;99.90;;;;;;4941477;28;90150;-30
2022/08/31 04:09:27;;;;;;;2.60;1.55;;;12.10;99.90;;;;;;4942287;28;89358;-31
2022/08/31 04:11:53;;;;;;;1.02;1.00;;;12.00;99.90;;;;;;4941491;28;89045;-32
2022/08/31 04:14:19;;;;;;;1.05;0.90;;;12.00;99.90;;;;;;4941746;28;89927;-30
2022/08/31 04:16:44;;;;;;;2.88;1.33;;;11.90;99.90;;;;;;4941470;28;90966;-31
2022/08/31 04:19:10;;;;;;;1.65;1.55;;;11.90;99.90;;;;;;4942026;28;88754;-29
2022/08/31 04:21:36;;;;;;;2.67;1.42;;;11.90;99.90;;;;;;4941714;28;87621;-30
2022/08/31 04:24:02;;;;;;;1.58;1.48;;;11.80;99.90;;;;;;4941147;28;89685;-29
2022/08/31 04:26:33;;;;;;;1.83;1.38;;;11.80;99.90;;;;;;4942093;28;90228;-30
2022/08/31 04:28:59;;;;;;;1.20;1.10;;;11.80;99.90;;;;;;4941809;28;89615;-34
2022/08/31 04:31:26;;;;;;;3.15;1.30;;;11.70;99.90;;;;;;4941446;28;87904;-30
2022/08/31 04:33:52;;;;;;;2.63;1.67;;;11.70;99.90;;;;;;4940984;28;88941;-30
2022/08/31 04:36:20;;;;;;;1.38;1.27;;;11.60;99.90;;;;;;4941106;28;88467;-34
2022/08/31 04:38:48;;;;;;;1.50;1.08;;;11.60;99.90;;;;;;4942199;28;87523;-29
2022/08/31 04:41:16;;;;;;;2.55;1.40;;;11.60;99.90;;;;;;4941788;28;89490;-29
2022/08/31 04:43:50;;;;;;;3.27;1.83;;;11.50;99.90;;;;;;4940895;28;90316;-28
2022/08/31 04:46:17;;;;;;;1.77;1.60;;;11.50;99.90;;;;;;4940994;28;89901;-29
2022/08/31 04:48:44;;;;;;;1.27;1.17;;;11.50;99.90;;;;;;4941715;28;88175;-30
2022/08/31 04:51:11;;;;;;;1.55;1.45;;;11.50;99.90;;;;;;4940762;28;88195;-33
2022/08/31 04:53:38;;;;;;;1.08;1.05;;;11.70;99.90;;;;;;4941092;28;90163;-30
2022/08/31 04:56:13;;;;;;;3.78;1.77;;;11.70;99.90;;;;;;4941399;28;89325;-31
2022/08/31 04:58:39;;;;;;;1.90;1.65;;;11.70;99.90;;;;;;4940777;28;88703;-32
2022/08/31 05:01:08;;;;;;;1.80;1.42;;;11.60;99.90;;;;;;4940656;28;88422;-31
2022/08/31 05:03:34;;;;;;;3.20;1.75;;;11.50;99.90;;;;;;4940704;28;89824;-31
2022/08/31 05:05:59;;;;;;;1.98;1.80;;;11.50;99.90;;;;;;4941559;28;89381;-31
2022/08/31 05:08:26;;;;;;;2.85;1.55;;;11.50;99.90;;;;;;4940656;28;88866;-31
2022/08/31 05:10:52;;;;;;;3.15;2.03;;;11.40;99.90;;;;;;4940869;28;89895;-30
2022/08/31 05:13:17;;;;;;;1.60;1.50;;;11.40;99.90;;;;;;4940368;28;90124;-31
2022/08/31 05:15:44;;;;;;;1.98;1.80;;;11.40;99.90;;;;;;4941649;28;90762;-31
2022/08/31 05:18:10;;;;;;;2.38;1.90;;;11.40;99.90;;;;;;4941408;28;89923;-31
2022/08/31 05:20:38;;;;;;;2.20;1.92;;;11.40;99.90;;;;;;4941121;28;89081;-30
2022/08/31 05:23:04;;;;;;;1.95;1.85;;;11.40;99.90;;;;;;4940889;28;91195;-33
2022/08/31 05:25:29;;;;;;;3.08;1.80;;;11.40;99.90;;;;;;4940829;28;88412;-32
2022/08/31 05:27:55;;;;;;;2.58;1.60;;;11.40;99.90;;;;;;4940353;28;87715;-30
2022/08/31 05:30:21;;;;;;;2.60;1.90;;;11.40;99.90;;;;;;4941411;28;87723;-32
2022/08/31 05:32:47;;;;;;;1.67;1.58;;;11.50;99.90;;;;;;4939234;28;92015;-32
2022/08/31 05:35:13;;;;;;;2.00;1.90;;;11.50;99.90;;;;;;4940028;28;89681;-33
2022/08/31 05:37:39;;;;;;;2.38;2.00;;;11.50;99.90;;;;;;4922793;28;88903;-33
2022/08/31 05:40:07;;;;;;;2.22;2.05;;;11.50;99.90;;;;;;4940797;28;87848;-32
2022/08/31 05:42:32;;;;;;;1.90;1.58;;;11.60;99.90;;;;;;4922404;28;90119;-32
2022/08/31 05:44:58;;;;;;;3.30;2.38;;;11.60;99.90;;;;;;4943232;28;89835;-32
2022/08/31 05:47:24;;;;;;;2.40;2.20;;;11.70;99.90;;;;;;4943304;28;87882;-29
2022/08/31 05:49:49;;;;;;;5.90;2.63;;;11.70;99.90;;;;;;4944237;28;89655;-30
2022/08/31 05:52:15;;;;;;;2.85;1.73;;;11.80;99.90;;;;;;4943634;28;90645;-32
2022/08/31 05:54:41;;;;;;;3.08;2.50;;;11.80;99.90;;;;;;4944268;28;89268;-36
2022/08/31 05:57:07;;;;;;;2.90;1.77;;;11.90;99.90;;;;;;4943483;28;89945;-32
2022/08/31 05:59:33;;;;;;;2.08;1.98;;;12.00;99.90;;;;;;4942395;28;88923;-33
2022/08/31 06:02:00;;;;;;;3.88;2.67;;;12.10;99.90;;;;;;4943142;28;90283;-31
2022/08/31 06:04:27;;;;;;;2.53;2.33;;;12.10;99.90;;;;;;4943343;28;90376;-31
2022/08/31 06:06:53;;;;;;;6.03;1.98;;;12.20;99.90;;;;;;4943885;28;87565;-30
2022/08/31 06:09:19;;;;;;;6.40;2.63;;;12.30;99.90;;;;;;4943299;28;87767;-30
2022/08/31 06:11:45;;;;;;;3.17;2.40;;;12.30;99.90;;;;;;4942838;28;90284;-33
2022/08/31 06:14:12;;;;;;;5.45;2.20;;;12.40;99.90;;;;;;4943550;28;90450;-37
2022/08/31 06:16:38;;;;;;;2.05;1.70;;;12.50;99.90;;;;;;4944359;28;89241;-33
2022/08/31 06:19:06;;;;;;;1.85;1.75;;;12.50;99.90;;;;;;4943179;28;88344;-29
2022/08/31 06:21:33;;;;;;;6.28;2.33;;;12.60;99.90;;;;;;4942768;28;90189;-32
2022/08/31 06:24:00;;;;;;;5.35;2.42;;;12.70;99.90;;;;;;4943040;28;92162;-33
2022/08/31 06:26:30;;;;;;;2.92;2.15;;;12.80;99.90;;;;;;4943517;28;89460;-32
2022/08/31 06:28:59;;;;;;;2.28;2.08;;;12.90;99.90;;;;;;4944274;28;89083;-29
2022/08/31 06:31:28;;;;;;;;;;;13.00;99.90;;;;;;4943644;28;91393;-31
2022/08/31 06:33:54;;;;;;;3.13;2.10;;;13.10;99.90;;;;;;4943912;28;89344;-31
2022/08/31 06:36:22;;;;;;;2.05;1.85;;;13.20;99.90;;;;;;4942691;28;87835;-30
2022/08/31 06:38:48;;;;;;;4.27;2.47;;;13.30;99.90;;;;;;4942882;28;89095;-32
2022/08/31 06:41:19;;;;;;;3.78;2.97;;;13.40;99.90;;;;;;4942850;28;92203;-29
2022/08/31 06:43:46;;;;;;;2.50;2.30;;;13.60;99.90;;;;;;4943197;28;89967;-31
2022/08/31 06:46:12;;;;;;;4.30;2.65;;;13.70;99.90;;;;;;4941367;28;88468;-32
2022/08/31 06:48:38;;;;;;;3.97;2.65;;;13.80;99.90;;;;;;4923015;28;88595;-33
2022/08/31 06:51:05;;;;;;;6.03;2.45;;;14.00;99.90;;;;;;4942946;28;90089;-30
2022/08/31 06:53:32;;;;;;;5.70;2.85;;;14.00;99.90;;;;;;4942278;28;90469;-30
2022/08/31 06:56:03;;;;;;;22.95;4.00;;;14.20;99.90;;;;;;4942716;28;89222;-30
2022/08/31 06:58:28;;;;;;;4.25;2.40;;;14.30;99.90;;;;;;4942147;28;87776;-34
2022/08/31 07:00:57;;;;;;;16.83;2.90;;;14.40;99.90;;;;;;4942998;28;90017;-33
2022/08/31 07:03:31;;;;;;;23.23;3.55;;;14.60;99.90;;;;;;4942746;28;89263;-32
2022/08/31 07:05:57;;;;;;;4.82;2.50;;;14.70;99.90;;;;;;4943213;28;88939;-30
2022/08/31 07:08:23;;;;;;;6.90;2.55;;;14.90;99.90;;;;;;4942523;28;88215;-32
2022/08/31 07:10:49;;;;;;;4.05;2.97;;;15.10;99.90;;;;;;4942043;28;88885;-30
2022/08/31 07:13:15;;;;;;;2.88;2.25;;;15.30;99.90;;;;;;4941760;28;90373;-32
2022/08/31 07:15:41;;;;;;;34.80;4.80;;;15.50;99.90;;;;;;4943553;28;89051;-31
2022/08/31 07:18:06;;;;;;;2.90;2.00;;;15.70;99.90;;;;;;4942304;28;88168;-31
2022/08/31 07:20:32;;;;;;;17.80;4.93;;;15.90;99.90;;;;;;4942355;28;90084;-33
2022/08/31 07:22:58;;;;;;;59.35;10.10;;;16.00;99.90;;;;;;4941938;28;89637;-33
2022/08/31 07:25:25;;;;;;;2.35;1.85;;;16.30;99.90;;;;;;4941230;28;89434;-32
2022/08/31 07:27:54;;;;;;;6.50;1.50;;;16.40;99.90;;;;;;4942638;28;88078;-34
2022/08/31 07:30:21;;;;;;;40.33;7.07;;;16.50;99.90;;;;;;4943184;28;90472;-31
2022/08/31 07:32:47;;;;;;;4.13;2.00;;;16.80;99.90;;;;;;4940589;28;89532;-32
2022/08/31 07:35:13;;;;;;;1.85;1.38;;;16.90;99.90;;;;;;4941990;28;89549;-31
2022/08/31 07:43:09;;;;;;;1.70;1.10;;;17.30;99.90;;;;;;4906093;28;88338;-35
2022/08/31 07:45:34;;;;;;;1.75;1.10;;;17.40;99.90;;;;;;4942515;28;89552;-31
2022/08/31 07:48:00;;;;;;;10.27;1.95;;;17.50;99.90;;;;;;4941571;28;89789;-35
2022/08/31 07:50:26;;;;;;;3.40;1.17;;;17.60;99.90;;;;;;4942101;28;90987;-31
2022/08/31 07:52:54;;;;;;;2.75;1.60;;;17.70;99.90;;;;;;4942012;28;89773;-30
2022/08/31 07:55:22;;;;;;;1.40;1.30;;;17.80;99.90;;;;;;4942112;28;90324;-34
2022/08/31 07:57:49;;;;;;;6.57;1.30;;;18.00;99.90;;;;;;4940179;28;87691;-33
2022/08/31 08:00:31;;;;;;;32.15;4.38;;;18.10;99.90;;;;;;4941987;28;91182;-32
2022/08/31 08:03:05;;;;;;;10.85;2.13;;;18.20;99.90;;;;;;4941697;28;89570;-32
2022/08/31 08:05:37;;;;;;;1.55;0.98;;;18.30;99.90;;;;;;4940477;28;88316;-31
2022/08/31 08:08:04;;;;;;;4.05;1.48;;;18.40;99.90;;;;;;4942014;28;89220;-32
2022/08/31 08:10:32;;;;;;;3.20;1.25;;;18.50;99.90;;;;;;4941660;28;91004;-32
2022/08/31 08:13:04;;;;;;;2.45;1.50;;;18.60;99.90;;;;;;4941595;28;89491;-31
2022/08/31 08:15:32;;;;;;;2.65;1.38;;;18.60;99.90;;;;;;4941944;28;90069;-33
2022/08/31 08:17:59;;;;;;;2.17;1.30;;;18.60;99.90;;;;;;4941524;28;89855;-30
2022/08/31 08:20:24;;;;;;;15.40;2.65;;;18.70;99.90;;;;;;4941331;28;89991;-30
2022/08/31 08:22:50;;;;;;;1.60;1.50;;;18.80;99.90;;;;;;4941388;28;89574;-30
2022/08/31 08:25:16;;;;;;;86.35;12.15;;;18.90;99.90;;;;;;4941032;28;88531;-32
2022/08/31 08:27:41;;;;;;;4.75;2.33;;;19.00;99.90;;;;;;4940595;28;90038;-32
2022/08/31 08:30:13;;;;;;;27.67;4.90;;;19.20;99.90;;;;;;4941313;28;90146;-32
2022/08/31 08:32:40;;;;;;;8.55;1.73;;;19.40;99.90;;;;;;4941088;28;90062;-33
2022/08/31 08:35:08;;;;;;;13.33;2.07;;;19.50;99.90;;;;;;4941363;28;88679;-32
2022/08/31 08:37:36;;;;;;;57.97;7.97;;;19.50;99.90;;;;;;4940945;28;88186;-35
2022/08/31 08:40:04;;;;;;;3.22;1.33;;;19.60;99.90;;;;;;4940642;28;89145;-35
2022/08/31 08:42:30;;;;;;;4.68;1.30;;;19.70;99.90;;;;;;4941310;28;88812;-32
2022/08/31 08:44:56;;;;;;;7.20;1.60;;;19.80;99.90;;;;;;4940640;28;88937;-32
2022/08/31 08:47:27;;;;;;;5.47;1.45;;;19.80;99.90;;;;;;4941212;28;89437;-34
2022/08/31 08:49:55;;;;;;;2.20;1.77;;;19.80;99.90;;;;;;4922668;28;90342;-31
2022/08/31 08:52:39;;;;;;;18.48;3.28;;;19.80;99.90;;;;;;4922982;28;89721;-31
2022/08/31 08:55:08;;;;;;;1.23;1.05;;;19.80;99.90;;;;;;4941141;28;88376;-31
2022/08/31 08:57:38;;;;;;;1.58;1.48;;;20.00;99.90;;;;;;4941027;28;88907;-35
2022/08/31 09:00:15;;;;;;;25.00;3.15;;;20.00;99.90;;;;;;4940390;28;92157;-34
2022/08/31 09:03:10;;;;;;;5.00;1.30;;;20.10;99.90;;;;;;4940634;28;89539;-33
2022/08/31 09:06:15;;;;;;;5.40;1.30;;;20.10;99.90;;;;;;4927961;28;88132;-32
2022/08/31 09:09:07;;;;;;;9.50;1.95;;;20.10;99.90;;;;;;4941207;28;88354;-34
2022/08/31 09:11:51;;;;;;;5.65;1.60;;;20.10;99.90;;;;;;4941360;28;90170;-33
2022/08/31 09:14:46;;;;;;;0.98;0.70;;;20.20;99.90;;;;;;4939879;28;89820;-34
2022/08/31 09:17:35;;;;;;;4.30;0.98;;;20.20;99.90;;;;;;4942120;28;89327;-34
2022/08/31 09:20:04;;;;;;;10.77;2.17;;;20.20;99.90;;;;;;4943693;28;88920;-34
2022/08/31 09:22:51;;;;;;;13.80;1.67;;;20.40;99.90;;;;;;4943787;28;92132;-32
2022/08/31 09:25:26;;;;;;;32.67;4.30;;;20.60;99.90;;;;;;4944359;28;89533;-31
2022/08/31 09:27:57;;;;;;;1.75;1.30;;;20.70;99.90;;;;;;4944527;28;87985;-31
2022/08/31 09:30:49;;;;;;;4.80;1.52;;;20.70;99.90;;;;;;4944550;28;88903;-32
2022/08/31 09:33:22;;;;;;;32.67;5.90;;;20.80;99.90;;;;;;4930212;28;90264;-34
2022/08/31 09:35:55;;;;;;;2.78;1.20;;;20.70;99.90;;;;;;4927088;28;90650;-32
2022/08/31 09:38:38;;;;;;;11.88;1.92;;;20.70;99.90;;;;;;4930902;28;89342;-33
2022/08/31 09:41:31;;;;;;;21.98;1.80;;;20.70;99.90;;;;;;4944199;28;88579;-33
2022/08/31 09:44:27;;;;;;;36.58;5.18;;;20.90;99.90;;;;;;4943721;28;90664;-34
2022/08/31 09:46:57;;;;;;;3.50;1.15;;;21.00;99.90;;;;;;4931763;28;89716;-35
2022/08/31 09:49:32;;;;;;;7.00;1.50;;;21.00;99.90;;;;;;4944076;28;87513;-30
2022/08/31 09:55:12;;;;;;;1.45;0.80;;;21.00;99.90;;;;;;4944110;28;89255;-33
2022/08/31 09:55:17;;;;;;;2.80;1.58;;;21.10;99.90;;;;;;4943433;28;90779;-32
2022/08/31 09:57:57;;;;;;;6.13;2.47;;;21.00;99.90;;;;;;4943821;28;89160;-33
2022/08/31 10:00:34;;;;;;;3.58;1.42;;;21.10;99.90;;;;;;4930160;28;89815;-31
2022/08/31 10:03:18;;;;;;;72.32;9.25;;;21.20;99.90;;;;;;4944191;28;87672;-32
2022/08/31 10:05:44;;;;;;;18.42;3.05;;;21.20;98.60;;;;;;4933289;28;90336;-31
2022/08/31 10:08:27;;;;;;;271.50;36.70;;;21.20;99.10;;;;;;4943204;28;89497;-33
2022/08/31 10:10:57;;;;;;;24.05;2.63;;;21.40;93.60;;;;;;4942896;28;88076;-31
2022/08/31 10:13:42;;;;;;;2.78;1.25;;;21.40;96.50;;;;;;4943497;28;89582;-35
2022/08/31 10:16:29;;;;;;;3.38;1.70;;;21.50;95.20;;;;;;4944261;28;90369;-32
2022/08/31 10:19:12;;;;;;;2.97;1.27;;;21.70;94.30;;;;;;4941638;28;89546;-34
2022/08/31 10:21:55;;;;;;;9.85;2.10;;;21.70;92.50;;;;;;4943664;28;87968;-34
2022/08/31 10:24:36;;;;;;;60.08;6.90;;;21.80;91.20;;;;;;4942721;28;87463;-34
2022/08/31 10:27:08;;;;;;;72.93;9.13;;;22.00;89.20;;;;;;4942771;28;92003;-32
2022/08/31 10:29:56;;;;;;;6.22;2.80;;;22.00;84.00;;;;;;4942833;28;90312;-34
2022/08/31 10:32:40;;;;;;;17.48;2.40;;;21.90;84.00;;;;;;4942942;28;88060;-34
2022/08/31 10:35:13;;;;;;;2.72;1.27;;;22.00;92.40;;;;;;4942073;28;87722;-34
2022/08/31 10:37:53;;;;;;;57.83;8.70;;;22.10;81.60;;;;;;4942964;28;89928;-32
2022/08/31 10:40:27;;;;;;;21.67;2.90;;;22.20;88.00;;;;;;4942711;28;89747;-32
2022/08/31 10:43:07;;;;;;;3.42;1.05;;;22.30;81.70;;;;;;4942704;28;89404;-33
2022/08/31 10:45:36;;;;;;;18.83;2.30;;;22.30;76.90;;;;;;4940825;28;89742;-31
2022/08/31 10:48:03;;;;;;;3.58;1.30;;;22.30;70.40;;;;;;4940554;28;90135;-34
2022/08/31 10:50:39;;;;;;;65.05;7.38;;;22.30;75.50;;;;;;4922915;28;89859;-31
2022/08/31 10:53:35;;;;;;;11.60;1.52;;;22.30;77.40;;;;;;4941170;28;90080;-31
2022/08/31 10:56:17;;;;;;;49.35;6.95;;;22.30;74.80;;;;;;4940824;28;88991;-32
2022/08/31 10:58:54;;;;;;;28.20;4.28;;;22.30;70.50;;;;;;4940124;28;90313;-35
2022/08/31 11:01:31;;;;;;;2.25;1.13;;;22.20;72.70;;;;;;4940490;28;89439;-31
2022/08/31 11:04:17;;;;;;;1.35;0.90;;;22.30;72.50;;;;;;4940629;28;88391;-31
2022/08/31 11:06:50;;;;;;;5.32;1.10;;;22.20;72.60;;;;;;4939236;28;88461;-34
2022/08/31 11:09:24;;;;;;;90.45;8.88;;;22.20;73.40;;;;;;4939077;28;90144;-31
2022/08/31 11:12:05;;;;;;;2.90;0.85;;;22.20;80.60;;;;;;4941800;28;89743;-31
2022/08/31 11:14:49;;;;;;;1.38;1.05;;;22.20;77.20;;;;;;4928447;28;88819;-30
2022/08/31 11:17:18;;;;;;;2.70;0.98;;;22.20;70.00;;;;;;4924854;28;89396;-33
2022/08/31 11:19:53;;;;;;;2.35;1.10;;;22.10;69.10;;;;;;4942973;28;90887;-31
2022/08/31 11:22:18;;;;;;;19.27;2.65;;;22.10;71.60;;;;;;4923835;28;89664;-31
2022/08/31 11:25:23;;;;;;;5.75;1.00;;;22.20;69.00;;;;;;4942894;28;89293;-34
2022/08/31 11:28:08;;;;;;;3.38;0.90;;;22.30;70.30;;;;;;4942963;28;87688;-31
2022/08/31 11:30:40;;;;;;;2.88;0.95;;;22.30;64.50;;;;;;4941517;28;90385;-31
2022/08/31 11:33:18;;;;;;;4.85;1.55;;;22.30;65.80;;;;;;4941714;28;90179;-32
2022/08/31 11:35:48;;;;;;;1.48;0.80;;;22.30;65.10;;;;;;4942229;28;89249;-31
2022/08/31 11:39:00;;;;;;;2.28;0.80;;;22.30;67.10;;;;;;4942434;28;89484;-30
2022/08/31 11:41:48;;;;;;;0.82;0.82;;;22.30;67.80;;;;;;4903824;28;90475;-34
2022/08/31 11:44:28;;;;;;;2.60;1.42;;;22.40;65.00;;;;;;4942339;28;90271;-30
2022/08/31 11:47:28;;;;;;;2.88;0.90;;;22.50;64.60;;;;;;4930384;28;87571;-35
2022/08/31 11:49:56;;;;;;;1.00;0.70;;;22.50;60.00;;;;;;4941806;28;87573;-33
2022/08/31 11:52:42;;;;;;;14.57;1.45;;;22.40;60.70;;;;;;4942210;28;89368;-33
2022/08/31 11:55:13;;;;;;;24.33;2.45;;;22.30;62.10;;;;;;4942340;28;90212;-32
2022/08/31 11:58:10;;;;;;;13.05;1.88;;;22.40;59.90;;;;;;4942296;28;87402;-33
2022/08/31 12:00:43;;;;;;;1.67;0.80;;;22.50;59.40;;;;;;4930573;28;89353;-30
2022/08/31 12:03:09;;;;;;;1.50;0.85;;;22.50;58.60;;;;;;4941526;28;90267;-32
2022/08/31 12:05:55;;;;;;;267.58;34.47;;;22.60;61.70;;;;;;4941950;28;89647;-34
2022/08/31 12:08:21;;;;;;;3.63;1.15;;;22.70;62.50;;;;;;4941064;28;88304;-29
2022/08/31 12:11:21;;;;;;;122.32;19.88;;;22.80;59.50;;;;;;4941824;28;88456;-33
2022/08/31 12:14:17;;;;;;;6.35;1.08;;;22.90;56.10;;;;;;4940125;28;90261;-33
2022/08/31 12:17:08;;;;;;;26.90;3.15;;;22.90;57.80;;;;;;4941736;28;90187;-33
2022/08/31 12:20:01;;;;;;;7.75;2.35;;;22.80;60.50;;;;;;4942112;28;89085;-31
2022/08/31 12:26:03;;;;;;;137.70;15.68;;;22.70;57.30;;;;;;4941597;28;89576;-31
2022/08/31 12:29:06;;;;;;;14.10;1.73;;;22.80;59.00;;;;;;4940879;28;89818;-31
2022/08/31 12:31:33;;;;;;;6.13;1.60;;;22.90;57.50;;;;;;4963471;22;89389;-34
2022/08/31 12:34:09;;;;;;;10.35;2.08;;;22.80;59.40;;;;;;4999618;28;87685;-33
2022/08/31 12:36:37;;;;;;;2.75;1.27;;;22.80;59.30;;;;;;5000907;28;90098;-32
2022/08/31 12:39:20;;;;;;;5.05;2.25;;;22.90;57.80;;;;;;5001033;28;89786;-30
2022/08/31 12:41:51;;;;;;;3.03;1.27;;;23.10;59.30;;;;;;5001509;28;87979;-32
2022/08/31 12:44:22;;;;;;;1.58;0.75;;;23.10;59.00;;;;;;5000283;28;89846;-31
2022/08/31 12:47:03;;;;;;;2.22;1.02;;;23.00;59.90;;;;;;5000467;28;91989;-32
2022/08/31 12:49:55;;;;;;;1.85;1.20;;;22.90;59.10;;;;;;5000399;28;90646;-32
2022/08/31 12:52:45;;;;;;;4.07;0.70;;;22.90;59.00;;;;;;5000434;28;88653;-32
2022/08/31 12:55:43;;;;;;;1.58;1.02;;;22.80;59.20;;;;;;5000041;28;89736;-32
2022/08/31 12:58:39;;;;;;;1.40;1.17;;;22.90;58.30;;;;;;5000595;28;89427;-32
2022/08/31 13:01:07;;;;;;;6.78;1.75;;;22.80;57.90;;;;;;5000511;28;89919;-31
2022/08/31 13:03:38;;;;;;;8.98;1.50;;;22.90;57.10;;;;;;5000494;28;89009;-33
2022/08/31 13:06:12;;;;;;;4.28;1.42;;;23.00;57.10;;;;;;5000960;28;89474;-31
2022/08/31 13:08:46;;;;;;;1.63;1.20;;;23.00;56.70;;;;;;4998569;28;90446;-30
2022/08/31 13:11:23;;;;;;;2.45;1.30;;;23.10;57.40;;;;;;4995820;28;89917;-36
2022/08/31 13:13:49;;;;;;;4.60;1.10;;;23.00;57.10;;;;;;4995181;28;88655;-34
2022/08/31 13:16:17;;;;;;;1.33;0.88;;;23.00;58.90;;;;;;4996915;28;88269;-34
2022/08/31 13:18:45;;;;;;;1.67;1.57;;;22.90;59.10;;;;;;4997386;28;89444;-31